DUJ weather

DuBois Regional Airport
Dubois, Pennsylvania, United States

Public forecast

Using degrees Fahrenheit for public forecast. Weather courtesy of forecast.io.

Current aviation weather report (METAR) for DuBois Regional Airport

Retrieved 2020/05/26 19:53 UTC (38 minutes ago):

KDUJ 261953Z AUTO 17007KT 130V210 10SM FEW065 29/14 A3016 RMK AO2 SLP198 T02940144

Aviation forecast (TAF) for DuBois Regional Airport

Retrieved 2020/05/26 18:36 UTC (2 hours ago):

TAF KDUJ 261733Z 2618/2718 15009KT P6SM FEW250 FM270000 15003KT P6SM FEW250 FM271200 14003KT P6SM BKN080